createdAt,value
2022-11-16T00:02:14.602Z,100.00
2022-11-16T00:04:41.785Z,100.00
2022-11-16T00:07:08.971Z,100.00
2022-11-16T00:09:35.744Z,100.00
2022-11-16T00:12:05.995Z,100.00
2022-11-16T00:14:35.855Z,100.00
2022-11-16T00:17:03.536Z,100.00
2022-11-16T00:19:30.320Z,100.00
2022-11-16T00:21:56.983Z,100.00
2022-11-16T00:24:23.905Z,100.00
2022-11-16T00:26:52.984Z,100.00
2022-11-16T00:29:21.903Z,100.00
2022-11-16T00:31:49.975Z,100.00
2022-11-16T00:34:16.676Z,100.00
2022-11-16T00:36:43.657Z,100.00
2022-11-16T00:39:12.495Z,100.00
2022-11-16T00:41:39.384Z,100.00
2022-11-16T00:44:06.137Z,100.00
2022-11-16T00:46:32.786Z,100.00
2022-11-16T00:48:59.458Z,100.00
2022-11-16T00:51:26.074Z,100.00
2022-11-16T00:53:52.694Z,100.00
2022-11-16T00:56:19.318Z,100.00
2022-11-16T00:58:45.903Z,100.00
2022-11-16T01:01:13.324Z,100.00
2022-11-16T01:03:40.504Z,100.00
2022-11-16T01:06:09.528Z,100.00
2022-11-16T01:08:37.994Z,100.00
2022-11-16T01:11:23.855Z,100.00
2022-11-16T01:13:50.451Z,100.00
2022-11-16T01:16:18.796Z,100.00
2022-11-16T01:18:52.290Z,100.00
2022-11-16T01:21:19.895Z,100.00
2022-11-16T01:23:46.601Z,100.00
2022-11-16T01:26:13.646Z,100.00
2022-11-16T01:28:40.328Z,100.00
2022-11-16T01:31:08.104Z,100.00
2022-11-16T01:33:34.959Z,100.00
2022-11-16T01:36:01.583Z,100.00
2022-11-16T01:38:29.941Z,100.00
2022-11-16T01:40:56.951Z,100.00
2022-11-16T01:43:25.086Z,100.00
2022-11-16T01:45:52.053Z,100.00
2022-11-16T01:48:27.339Z,100.00
2022-11-16T01:50:57.814Z,100.00
2022-11-16T01:53:24.979Z,100.00
2022-11-16T01:55:52.358Z,100.00
2022-11-16T01:58:23.086Z,100.00
2022-11-16T02:00:50.170Z,100.00
2022-11-16T02:03:21.001Z,100.00
2022-11-16T02:06:15.489Z,100.00
2022-11-16T02:09:13.771Z,100.00
2022-11-16T02:11:56.451Z,100.00
2022-11-16T02:14:44.458Z,100.00
2022-11-16T02:17:25.432Z,100.00
2022-11-16T02:20:29.206Z,100.00
2022-11-16T02:23:26.757Z,100.00
2022-11-16T02:26:08.348Z,100.00
2022-11-16T02:29:03.093Z,100.00
2022-11-16T02:31:37.152Z,100.00
2022-11-16T02:34:07.694Z,100.00
2022-11-16T02:36:36.072Z,100.00
2022-11-16T02:39:10.445Z,100.00
2022-11-16T02:41:42.091Z,100.00
2022-11-16T02:44:17.090Z,100.00
2022-11-16T02:46:48.209Z,100.00
2022-11-16T02:49:18.723Z,100.00
2022-11-16T02:51:47.755Z,100.00
2022-11-16T02:54:20.093Z,100.00
2022-11-16T02:57:34.530Z,100.00
2022-11-16T03:00:02.415Z,100.00
2022-11-16T03:02:46.280Z,100.00
2022-11-16T03:05:31.990Z,100.00
2022-11-16T03:08:32.406Z,100.00
2022-11-16T03:11:22.800Z,100.00
2022-11-16T03:13:50.835Z,100.00
2022-11-16T03:16:26.164Z,100.00
2022-11-16T03:18:55.602Z,100.00
2022-11-16T03:21:28.135Z,100.00
2022-11-16T03:23:54.902Z,100.00
2022-11-16T03:26:26.306Z,100.00
2022-11-16T03:29:21.156Z,100.00
2022-11-16T03:31:55.604Z,100.00
2022-11-16T03:34:29.474Z,100.00
2022-11-16T03:36:58.980Z,100.00
2022-11-16T03:39:31.562Z,100.00
2022-11-16T03:42:01.104Z,100.00
2022-11-16T03:44:28.789Z,100.00
2022-11-16T03:46:55.556Z,100.00
2022-11-16T03:49:23.469Z,100.00
2022-11-16T03:51:51.158Z,100.00
2022-11-16T03:54:17.882Z,100.00
2022-11-16T03:56:44.481Z,100.00
2022-11-16T03:59:11.131Z,100.00
2022-11-16T04:01:41.857Z,100.00
2022-11-16T04:04:31.197Z,100.00
2022-11-16T04:07:16.634Z,100.00
2022-11-16T04:10:01.869Z,100.00
2022-11-16T04:12:47.101Z,100.00
2022-11-16T04:15:32.398Z,100.00
2022-11-16T04:18:17.611Z,100.00
2022-11-16T04:21:03.696Z,100.00
2022-11-16T04:23:49.223Z,100.00
2022-11-16T04:26:16.087Z,100.00
2022-11-16T04:28:43.115Z,100.00
2022-11-16T04:31:28.535Z,100.00
2022-11-16T04:34:13.789Z,100.00
2022-11-16T04:36:59.048Z,100.00
2022-11-16T04:39:25.616Z,100.00
2022-11-16T04:42:10.471Z,100.00
2022-11-16T04:44:55.875Z,100.00
2022-11-16T04:47:22.543Z,100.00
2022-11-16T04:49:49.219Z,100.00
2022-11-16T04:52:15.876Z,100.00
2022-11-16T04:54:42.535Z,100.00
2022-11-16T04:57:09.132Z,100.00
2022-11-16T04:59:35.738Z,100.00
2022-11-16T05:02:08.378Z,100.00
2022-11-16T05:04:39.631Z,100.00
2022-11-16T05:07:10.917Z,100.00
2022-11-16T05:09:48.048Z,100.00
2022-11-16T05:12:18.077Z,100.00
2022-11-16T05:14:44.823Z,100.00
2022-11-16T05:17:12.562Z,100.00
2022-11-16T05:19:57.858Z,100.00
2022-11-16T05:22:25.391Z,100.00
2022-11-16T05:24:52.664Z,100.00
2022-11-16T05:27:21.035Z,100.00
2022-11-16T05:29:51.716Z,100.00
2022-11-16T05:32:19.930Z,100.00
2022-11-16T05:34:46.754Z,100.00
2022-11-16T05:37:14.091Z,100.00
2022-11-16T05:39:41.063Z,100.00
2022-11-16T05:42:08.335Z,100.00
2022-11-16T05:44:35.020Z,100.00
2022-11-16T05:47:01.770Z,100.00
2022-11-16T05:49:28.676Z,100.00
2022-11-16T05:51:55.313Z,100.00
2022-11-16T05:54:24.873Z,100.00
2022-11-16T05:56:52.047Z,100.00
2022-11-16T05:59:20.258Z,100.00
2022-11-16T06:01:47.989Z,100.00
2022-11-16T06:04:15.133Z,100.00
2022-11-16T06:06:41.774Z,100.00
2022-11-16T06:09:09.544Z,100.00
2022-11-16T06:11:38.067Z,100.00
2022-11-16T06:14:05.156Z,100.00
2022-11-16T06:16:31.745Z,100.00
2022-11-16T06:18:59.851Z,100.00
2022-11-16T06:21:26.679Z,100.00
2022-11-16T06:23:53.624Z,100.00
2022-11-16T06:26:20.419Z,100.00
2022-11-16T06:28:47.216Z,100.00
2022-11-16T06:31:13.931Z,100.00
2022-11-16T06:33:40.620Z,100.00
2022-11-16T06:36:07.778Z,100.00
2022-11-16T06:38:34.618Z,100.00
2022-11-16T06:41:01.577Z,100.00
2022-11-16T06:43:28.207Z,100.00
2022-11-16T06:45:56.487Z,100.00
2022-11-16T06:48:23.374Z,100.00
2022-11-16T06:50:52.069Z,100.00
2022-11-16T06:53:19.482Z,100.00
2022-11-16T06:55:46.323Z,100.00
2022-11-16T06:58:12.978Z,100.00
2022-11-16T07:00:39.813Z,100.00
2022-11-16T07:03:06.794Z,100.00
2022-11-16T07:05:33.632Z,100.00
2022-11-16T07:08:00.292Z,100.00
2022-11-16T07:10:26.923Z,100.00
2022-11-16T07:12:53.593Z,100.00
2022-11-16T07:15:20.275Z,100.00
2022-11-16T07:17:47.542Z,100.00
2022-11-16T07:20:14.323Z,100.00
2022-11-16T07:22:40.971Z,100.00
2022-11-16T07:25:08.266Z,100.00
2022-11-16T07:27:34.900Z,100.00
2022-11-16T07:30:02.252Z,100.00
2022-11-16T07:32:31.037Z,100.00
2022-11-16T07:34:59.630Z,94.60
2022-11-16T07:37:26.662Z,90.48
2022-11-16T07:39:53.300Z,94.17
2022-11-16T07:42:19.956Z,94.95
2022-11-16T07:44:46.562Z,96.25
2022-11-16T07:47:13.238Z,100.00
2022-11-16T07:49:40.083Z,100.00
2022-11-16T07:52:10.129Z,100.00
2022-11-16T07:54:37.107Z,100.00
2022-11-16T07:57:03.990Z,100.00
2022-11-16T07:59:30.706Z,100.00
2022-11-16T08:01:59.195Z,100.00
2022-11-16T08:04:26.021Z,100.00
2022-11-16T08:06:52.874Z,100.00
2022-11-16T08:09:19.705Z,100.00
2022-11-16T08:11:47.210Z,100.00
2022-11-16T08:14:14.069Z,100.00
2022-11-16T08:16:40.711Z,100.00
2022-11-16T08:19:07.280Z,94.25
2022-11-16T08:21:33.921Z,78.89
2022-11-16T08:24:00.493Z,66.87
2022-11-16T08:26:27.714Z,62.69
2022-11-16T08:28:56.511Z,56.16
2022-11-16T08:31:26.644Z,52.67
2022-11-16T08:33:53.409Z,50.47
2022-11-16T08:36:20.745Z,48.32
2022-11-16T08:38:48.834Z,45.20
2022-11-16T08:41:16.616Z,42.68
2022-11-16T08:43:44.650Z,46.54
2022-11-16T08:46:11.413Z,48.34
2022-11-16T08:48:38.201Z,45.06
2022-11-16T08:51:19.177Z,41.39
2022-11-16T08:53:48.352Z,42.98
2022-11-16T08:56:17.112Z,42.51
2022-11-16T08:58:46.748Z,50.45
2022-11-16T09:01:19.053Z,46.41
2022-11-16T09:03:46.671Z,43.45
2022-11-16T09:06:14.096Z,40.30
2022-11-16T09:08:42.601Z,40.10
2022-11-16T09:11:12.101Z,44.57
2022-11-16T09:13:38.718Z,43.22
2022-11-16T09:16:05.655Z,39.66
2022-11-16T09:18:32.955Z,36.22
2022-11-16T09:20:59.825Z,35.74
2022-11-16T09:23:26.539Z,36.85
2022-11-16T09:25:54.670Z,37.92
2022-11-16T09:28:22.640Z,35.51
2022-11-16T09:30:51.141Z,33.37
2022-11-16T09:33:18.341Z,33.21
2022-11-16T09:35:45.411Z,34.04
2022-11-16T09:38:16.200Z,33.73
2022-11-16T09:40:48.959Z,32.98
2022-11-16T09:43:45.924Z,37.40
2022-11-16T09:46:37.865Z,39.70
2022-11-16T09:49:17.637Z,38.39
2022-11-16T09:51:48.765Z,39.23
2022-11-16T09:54:20.667Z,34.52
2022-11-16T09:56:51.705Z,34.09
2022-11-16T09:59:25.471Z,34.55
2022-11-16T10:02:03.365Z,41.20
2022-11-16T10:05:13.023Z,41.27
2022-11-16T10:07:46.643Z,39.21
2022-11-16T10:10:23.261Z,36.41
2022-11-16T10:13:04.584Z,37.90
2022-11-16T10:16:06.019Z,34.30
2022-11-16T10:18:44.192Z,35.09
2022-11-16T10:21:39.669Z,36.63
2022-11-16T10:24:27.647Z,38.08
2022-11-16T10:26:59.861Z,42.63
2022-11-16T10:29:48.420Z,44.75
2022-11-16T10:32:30.926Z,45.51
2022-11-16T10:35:05.451Z,46.95
2022-11-16T10:37:36.928Z,49.29
2022-11-16T10:40:27.483Z,50.32
2022-11-16T10:43:04.051Z,49.96
2022-11-16T10:45:45.637Z,51.41
2022-11-16T10:48:39.667Z,51.97
2022-11-16T10:51:08.199Z,49.34
2022-11-16T10:53:49.322Z,45.80
2022-11-16T10:56:32.502Z,42.22
2022-11-16T10:59:02.799Z,45.88
2022-11-16T11:01:38.888Z,45.64
2022-11-16T11:04:27.035Z,44.46
2022-11-16T11:07:02.454Z,46.39
2022-11-16T11:09:31.057Z,46.70
2022-11-16T11:12:37.159Z,42.91
2022-11-16T11:15:06.896Z,39.70
2022-11-16T11:17:35.499Z,37.03
2022-11-16T11:20:05.591Z,35.56
2022-11-16T11:22:35.138Z,34.26
2022-11-16T11:25:03.372Z,35.44
2022-11-16T11:27:34.790Z,33.52
2022-11-16T11:30:01.721Z,34.54
2022-11-16T11:32:40.077Z,35.66
2022-11-16T11:35:21.772Z,34.23
2022-11-16T11:37:53.139Z,34.22
2022-11-16T11:40:27.548Z,33.36
2022-11-16T11:42:57.815Z,34.37
2022-11-16T11:45:35.747Z,36.47
2022-11-16T11:48:14.687Z,37.78
2022-11-16T11:50:54.241Z,37.06
2022-11-16T11:53:23.788Z,37.87
2022-11-16T11:55:59.804Z,40.77
2022-11-16T11:58:31.065Z,41.63
2022-11-16T12:01:34.827Z,43.70
2022-11-16T12:04:07.134Z,43.96
2022-11-16T12:07:27.615Z,44.73
2022-11-16T12:10:07.645Z,46.56
2022-11-16T12:12:49.352Z,48.99
2022-11-16T12:15:24.783Z,52.03
2022-11-16T12:18:18.180Z,50.31
2022-11-16T12:20:55.580Z,50.48
2022-11-16T12:23:22.159Z,51.01
2022-11-16T12:26:02.009Z,52.00
2022-11-16T12:28:51.278Z,48.84
2022-11-16T12:31:50.291Z,49.38
2022-11-16T12:34:38.692Z,48.31
2022-11-16T12:37:24.104Z,49.88
2022-11-16T12:40:28.535Z,51.44
2022-11-16T12:43:05.708Z,51.30
2022-11-16T12:45:35.121Z,53.12
2022-11-16T12:48:24.948Z,53.44
2022-11-16T12:50:55.143Z,51.80
2022-11-16T12:53:27.435Z,51.00
2022-11-16T12:56:39.294Z,51.65
2022-11-16T12:59:33.564Z,52.12
2022-11-16T13:02:16.315Z,51.91
2022-11-16T13:04:52.829Z,50.95
2022-11-16T13:07:31.195Z,52.20
2022-11-16T13:10:05.323Z,53.42
2022-11-16T13:12:33.110Z,52.52
2022-11-16T13:15:03.120Z,52.20
2022-11-16T13:17:37.113Z,51.98
2022-11-16T13:20:28.088Z,53.30
2022-11-16T13:23:05.674Z,52.73
2022-11-16T13:25:40.407Z,52.77
2022-11-16T13:28:16.179Z,55.08
2022-11-16T13:31:02.306Z,53.77
2022-11-16T13:33:49.294Z,54.41
2022-11-16T13:36:36.873Z,54.86
2022-11-16T13:39:05.471Z,55.04
2022-11-16T13:41:40.547Z,55.90
2022-11-16T13:44:22.012Z,55.11
2022-11-16T13:46:56.194Z,55.59
2022-11-16T13:49:31.837Z,56.15
2022-11-16T13:52:17.286Z,55.46
2022-11-16T13:54:55.422Z,55.88
2022-11-16T13:57:29.583Z,56.39
2022-11-16T14:00:10.214Z,56.44
2022-11-16T14:02:38.463Z,56.45
2022-11-16T14:05:36.939Z,57.05
2022-11-16T14:08:37.205Z,56.15
2022-11-16T14:11:05.348Z,56.76
2022-11-16T14:13:36.200Z,56.85
2022-11-16T14:16:15.319Z,57.82
2022-11-16T14:18:43.890Z,56.07
2022-11-16T14:21:19.323Z,57.08
2022-11-16T14:23:51.673Z,59.05
2022-11-16T14:26:27.191Z,58.58
2022-11-16T14:29:07.413Z,61.47
2022-11-16T14:31:54.782Z,59.98
2022-11-16T14:34:31.374Z,59.18
2022-11-16T14:36:59.567Z,58.89
2022-11-16T14:39:46.395Z,60.52
2022-11-16T14:42:21.555Z,60.39
2022-11-16T14:44:49.743Z,60.05
2022-11-16T14:47:24.498Z,59.58
2022-11-16T14:49:51.854Z,61.58
2022-11-16T14:52:26.359Z,61.33
2022-11-16T14:55:01.348Z,63.32
2022-11-16T14:57:28.546Z,64.36
2022-11-16T15:00:30.508Z,65.27
2022-11-16T15:03:02.088Z,65.71
2022-11-16T15:05:34.542Z,66.40
2022-11-16T15:08:03.579Z,66.79
2022-11-16T15:10:30.355Z,67.39
2022-11-16T15:12:57.735Z,68.47
2022-11-16T15:15:29.822Z,69.29
2022-11-16T15:17:59.269Z,69.83
2022-11-16T15:20:29.001Z,70.46
2022-11-16T15:22:59.049Z,71.50
2022-11-16T15:25:36.901Z,71.43
2022-11-16T15:28:28.558Z,71.51
2022-11-16T15:31:01.678Z,72.04
2022-11-16T15:33:38.617Z,71.95
2022-11-16T15:36:44.170Z,71.62
2022-11-16T15:39:28.129Z,73.34
2022-11-16T15:42:00.432Z,73.90
2022-11-16T15:44:31.184Z,74.15
2022-11-16T15:46:58.789Z,74.79
2022-11-16T15:49:38.445Z,75.03
2022-11-16T15:52:05.260Z,75.30
2022-11-16T15:54:53.831Z,75.79
2022-11-16T15:57:22.962Z,75.97
2022-11-16T15:59:52.065Z,77.47
2022-11-16T16:02:21.915Z,77.99
2022-11-16T16:04:48.662Z,79.13
2022-11-16T16:07:41.775Z,79.40
2022-11-16T16:10:20.809Z,79.05
2022-11-16T16:12:50.644Z,79.38
2022-11-16T16:15:24.036Z,79.44
2022-11-16T16:17:52.262Z,79.38
2022-11-16T16:20:22.831Z,80.60
2022-11-16T16:22:50.192Z,80.75
2022-11-16T16:25:34.007Z,80.76
2022-11-16T16:28:00.681Z,81.29
2022-11-16T16:30:31.536Z,81.94
2022-11-16T16:32:58.393Z,81.99
2022-11-16T16:35:26.057Z,81.64
2022-11-16T16:38:01.851Z,81.42
2022-11-16T16:40:29.278Z,82.04
2022-11-16T16:42:56.730Z,81.92
2022-11-16T16:45:41.877Z,82.02
2022-11-16T16:48:12.747Z,81.99
2022-11-16T16:50:39.878Z,84.39
2022-11-16T16:53:06.605Z,83.22
2022-11-16T16:55:37.503Z,83.86
2022-11-16T16:58:04.957Z,85.14
2022-11-16T17:00:31.876Z,86.54
2022-11-16T17:03:01.072Z,86.50
2022-11-16T17:05:27.689Z,86.28
2022-11-16T17:07:55.895Z,85.77
2022-11-16T17:10:23.104Z,86.25
2022-11-16T17:12:53.387Z,86.56
2022-11-16T17:15:20.067Z,86.37
2022-11-16T17:17:47.129Z,86.47
2022-11-16T17:20:14.456Z,88.12
2022-11-16T17:22:41.926Z,87.48
2022-11-16T17:25:09.449Z,86.87
2022-11-16T17:27:36.081Z,87.51
2022-11-16T17:30:03.421Z,88.88
2022-11-16T17:32:30.512Z,88.39
2022-11-16T17:34:57.125Z,89.91
2022-11-16T17:37:23.833Z,89.16
2022-11-16T17:39:50.498Z,90.09
2022-11-16T17:42:17.173Z,89.52
2022-11-16T17:44:43.786Z,90.79
2022-11-16T17:47:11.537Z,90.70
2022-11-16T17:49:38.216Z,90.17
2022-11-16T17:52:05.079Z,90.07
2022-11-16T17:54:31.857Z,90.26
2022-11-16T17:56:58.530Z,91.30
2022-11-16T17:59:29.163Z,90.91
2022-11-16T18:01:57.998Z,91.11
2022-11-16T18:04:24.960Z,90.90
2022-11-16T18:06:51.631Z,91.14
2022-11-16T18:09:18.843Z,90.84
2022-11-16T18:11:45.717Z,91.78
2022-11-16T18:14:12.613Z,91.82
2022-11-16T18:16:42.307Z,91.09
2022-11-16T18:19:09.879Z,91.45
2022-11-16T18:21:41.177Z,92.68
2022-11-16T18:24:08.535Z,93.04
2022-11-16T18:26:35.351Z,93.08
2022-11-16T18:29:02.212Z,92.96
2022-11-16T18:31:29.819Z,95.88
2022-11-16T18:33:56.616Z,95.03
2022-11-16T18:36:23.255Z,94.45
2022-11-16T18:38:50.146Z,95.46
2022-11-16T18:41:19.694Z,96.46
2022-11-16T18:44:00.883Z,97.17
2022-11-16T18:46:32.551Z,99.23
2022-11-16T18:48:59.975Z,99.33
2022-11-16T18:51:28.012Z,98.72
2022-11-16T18:53:55.225Z,97.32
2022-11-16T18:56:22.429Z,97.60
2022-11-16T18:58:50.834Z,99.31
2022-11-16T19:01:19.812Z,100.00
2022-11-16T19:03:46.618Z,99.30
2022-11-16T19:06:15.590Z,98.64
2022-11-16T19:08:42.770Z,98.40
2022-11-16T19:11:14.651Z,97.44
2022-11-16T19:13:43.267Z,97.38
2022-11-16T19:16:11.842Z,96.93
2022-11-16T19:18:38.900Z,97.21
2022-11-16T19:21:09.998Z,96.88
2022-11-16T19:23:37.785Z,98.99
2022-11-16T19:26:05.428Z,99.25
2022-11-16T19:28:36.760Z,99.43
2022-11-16T19:31:14.126Z,98.44
2022-11-16T19:33:41.575Z,97.83
2022-11-16T19:36:16.268Z,97.88
2022-11-16T19:38:44.138Z,98.02
2022-11-16T19:41:12.534Z,98.85
2022-11-16T19:43:39.355Z,99.09
2022-11-16T19:46:12.391Z,98.99
2022-11-16T19:48:39.349Z,99.14
2022-11-16T19:51:11.403Z,98.74
2022-11-16T19:53:39.237Z,98.57
2022-11-16T19:56:07.190Z,98.51
2022-11-16T19:58:38.333Z,100.00
2022-11-16T20:01:07.462Z,100.00
2022-11-16T20:03:34.820Z,100.00
2022-11-16T20:06:10.153Z,99.74
2022-11-16T20:08:37.869Z,99.08
2022-11-16T20:11:20.249Z,99.67
2022-11-16T20:13:48.673Z,100.00
2022-11-16T20:16:17.240Z,100.00
2022-11-16T20:18:44.103Z,100.00
2022-11-16T20:21:18.636Z,100.00
2022-11-16T20:23:45.563Z,100.00
2022-11-16T20:26:13.840Z,100.00
2022-11-16T20:28:42.663Z,100.00
2022-11-16T20:31:15.015Z,100.00
2022-11-16T20:33:42.211Z,100.00
2022-11-16T20:36:11.069Z,100.00
2022-11-16T20:38:39.169Z,100.00
2022-11-16T20:41:09.613Z,100.00
2022-11-16T20:43:36.942Z,100.00
2022-11-16T20:46:03.763Z,100.00
2022-11-16T20:48:30.406Z,100.00
2022-11-16T20:50:57.021Z,100.00
2022-11-16T20:53:24.662Z,100.00
2022-11-16T20:55:51.250Z,100.00
2022-11-16T20:58:22.653Z,100.00
2022-11-16T21:00:50.195Z,100.00
2022-11-16T21:03:17.241Z,100.00
2022-11-16T21:05:45.095Z,100.00
2022-11-16T21:08:13.025Z,100.00
2022-11-16T21:10:40.044Z,100.00
2022-11-16T21:13:30.461Z,100.00
2022-11-16T21:16:02.590Z,100.00
2022-11-16T21:18:31.013Z,100.00
2022-11-16T21:21:08.912Z,100.00
2022-11-16T21:23:37.322Z,100.00
2022-11-16T21:26:06.506Z,100.00
2022-11-16T21:28:33.639Z,100.00
2022-11-16T21:31:06.579Z,100.00
2022-11-16T21:33:34.558Z,100.00
2022-11-16T21:36:05.803Z,100.00
2022-11-16T21:38:33.039Z,100.00
2022-11-16T21:41:00.347Z,100.00
2022-11-16T21:43:27.634Z,100.00
2022-11-16T21:46:01.951Z,100.00
2022-11-16T21:48:30.476Z,100.00
2022-11-16T21:51:02.000Z,100.00
2022-11-16T21:53:29.138Z,100.00
2022-11-16T21:55:55.775Z,100.00
2022-11-16T21:58:22.621Z,100.00
2022-11-16T22:00:49.521Z,100.00
2022-11-16T22:03:16.219Z,100.00
2022-11-16T22:06:01.226Z,100.00
2022-11-16T22:08:27.955Z,100.00
2022-11-16T22:10:54.645Z,100.00
2022-11-16T22:13:21.711Z,100.00
2022-11-16T22:15:48.447Z,100.00
2022-11-16T22:18:15.089Z,100.00
2022-11-16T22:20:41.772Z,100.00
2022-11-16T22:23:08.431Z,100.00
2022-11-16T22:25:36.710Z,100.00
2022-11-16T22:28:20.271Z,100.00
2022-11-16T22:30:51.710Z,100.00
2022-11-16T22:33:19.016Z,100.00
2022-11-16T22:35:46.896Z,100.00
2022-11-16T22:38:13.598Z,100.00
2022-11-16T22:40:40.243Z,100.00
2022-11-16T22:43:06.902Z,100.00
2022-11-16T22:45:33.534Z,100.00
2022-11-16T22:48:00.196Z,100.00
2022-11-16T22:50:27.163Z,100.00
2022-11-16T22:52:53.766Z,100.00
2022-11-16T22:55:20.418Z,100.00
2022-11-16T22:57:47.052Z,100.00
2022-11-16T23:00:14.142Z,100.00
2022-11-16T23:02:41.246Z,100.00
2022-11-16T23:05:08.471Z,100.00
2022-11-16T23:07:35.801Z,100.00
2022-11-16T23:10:03.353Z,100.00
2022-11-16T23:12:49.487Z,100.00
2022-11-16T23:15:36.081Z,100.00
2022-11-16T23:18:02.804Z,100.00
2022-11-16T23:20:48.777Z,100.00
2022-11-16T23:23:38.232Z,100.00
2022-11-16T23:26:31.708Z,100.00
2022-11-16T23:28:58.736Z,100.00
2022-11-16T23:31:25.412Z,100.00
2022-11-16T23:33:52.017Z,100.00
2022-11-16T23:36:18.667Z,100.00
2022-11-16T23:38:45.289Z,100.00
2022-11-16T23:41:30.298Z,100.00
2022-11-16T23:43:59.895Z,100.00
2022-11-16T23:46:31.727Z,100.00
2022-11-16T23:48:59.068Z,100.00
2022-11-16T23:51:25.695Z,100.00
2022-11-16T23:53:53.595Z,100.00
2022-11-16T23:56:20.854Z,100.00
2022-11-16T23:58:47.767Z,100.00
